Time;durP1;ratioP1;P1;durP2;ratioP2;P2;SDS_P1;SDS_P2;PMS_P1;PMS_P2;Temp;Humidity;BMP_temperature;BMP_pressure;BME280_temperature;BME280_humidity;BME280_pressure;Samples;Min_cycle;Max_cycle;Signal;HPM_P1;HPM_P2
2021/09/17 00:02:01;;;;;;;11.53;10.53;;;15.90;99.90;;;;;;5019630;28;20180;-79
2021/09/17 00:04:26;;;;;;;11.70;9.50;;;15.90;99.90;;;;;;5019036;28;20200;-79
2021/09/17 00:06:52;;;;;;;10.73;9.87;;;15.80;99.90;;;;;;5018994;28;20215;-78
2021/09/17 00:09:20;;;;;;;11.13;10.30;;;15.80;99.90;;;;;;5018786;28;20175;-78
2021/09/17 00:11:45;;;;;;;11.70;10.67;;;15.80;99.90;;;;;;5021247;28;20187;-79
2021/09/17 00:14:11;;;;;;;11.23;10.23;;;15.80;99.90;;;;;;5022511;28;20190;-78
2021/09/17 00:16:37;;;;;;;11.53;10.53;;;15.80;99.90;;;;;;5022581;28;20196;-79
2021/09/17 00:19:02;;;;;;;12.03;10.90;;;15.70;99.90;;;;;;5022205;28;20182;-79
2021/09/17 00:21:28;;;;;;;11.87;10.80;;;15.70;99.90;;;;;;5022901;28;20204;-79
2021/09/17 00:23:54;;;;;;;11.77;10.70;;;15.60;99.90;;;;;;5021771;28;20191;-79
2021/09/17 00:26:19;;;;;;;11.23;10.23;;;15.60;99.90;;;;;;5021749;28;20216;-78
2021/09/17 00:28:47;;;;;;;12.80;10.83;;;15.60;99.90;;;;;;5029625;28;20175;-79
2021/09/17 00:31:13;;;;;;;12.13;10.90;;;15.50;99.90;;;;;;5027691;28;20195;-79
2021/09/17 00:33:39;;;;;;;10.80;9.93;;;15.50;99.90;;;;;;5020851;28;20179;-79
2021/09/17 00:36:04;;;;;;;10.83;9.97;;;15.50;99.90;;;;;;5016638;28;20218;-79
2021/09/17 00:38:30;;;;;;;11.00;9.97;;;15.50;99.90;;;;;;5021061;28;20194;-79
2021/09/17 00:40:56;;;;;;;14.77;11.30;;;15.40;99.90;;;;;;5021937;28;20210;-79
2021/09/17 00:43:21;;;;;;;15.57;10.70;;;15.30;99.90;;;;;;5021468;28;20185;-78
2021/09/17 00:45:47;;;;;;;13.43;10.20;;;15.20;99.90;;;;;;5022491;28;20186;-79
2021/09/17 00:48:13;;;;;;;12.10;11.00;;;15.20;99.90;;;;;;5037751;28;20549;-78
2021/09/17 00:50:39;;;;;;;12.17;11.00;;;15.10;99.90;;;;;;5040933;28;20207;-79
2021/09/17 00:53:05;;;;;;;12.33;11.23;;;15.10;99.90;;;;;;5025162;28;20182;-79
2021/09/17 00:55:31;;;;;;;12.00;10.90;;;15.00;99.90;;;;;;5024275;28;20210;-79
2021/09/17 00:57:57;;;;;;;12.17;10.53;;;15.00;99.90;;;;;;5024463;28;20298;-78
2021/09/17 01:00:23;;;;;;;12.20;10.90;;;15.10;99.90;;;;;;5025444;28;20208;-79
2021/09/17 01:02:48;;;;;;;12.57;11.53;;;15.00;99.90;;;;;;5024653;28;20699;-79
2021/09/17 01:05:15;;;;;;;12.67;11.37;;;15.10;99.90;;;;;;5025241;28;20185;-79
2021/09/17 01:07:42;;;;;;;11.87;10.80;;;15.00;99.90;;;;;;5023914;28;20199;-78
2021/09/17 01:10:08;;;;;;;13.17;10.87;;;15.10;99.90;;;;;;5036018;28;20170;-78
2021/09/17 01:12:34;;;;;;;12.73;11.53;;;15.00;99.90;;;;;;5030562;28;20210;-78
2021/09/17 01:15:00;;;;;;;13.33;12.00;;;14.90;99.90;;;;;;5033853;28;20190;-79
2021/09/17 01:17:31;;;;;;;12.57;11.37;;;14.90;99.90;;;;;;5037135;28;20776;-78
2021/09/17 01:19:56;;;;;;;12.80;11.50;;;15.00;99.90;;;;;;5024445;28;20198;-78
2021/09/17 01:22:22;;;;;;;12.30;11.20;;;14.90;99.90;;;;;;5024998;28;20218;-78
2021/09/17 01:24:47;;;;;;;12.80;11.63;;;14.90;99.90;;;;;;5022966;28;20230;-79
2021/09/17 01:27:14;;;;;;;11.97;10.90;;;14.80;99.90;;;;;;5021508;28;20249;-78
2021/09/17 01:29:39;;;;;;;12.40;11.23;;;14.90;99.90;;;;;;5022786;28;20631;-79
2021/09/17 01:32:05;;;;;;;11.67;10.50;;;14.80;99.90;;;;;;5024368;28;20230;-79
2021/09/17 01:34:31;;;;;;;11.37;10.27;;;14.80;99.90;;;;;;5022960;28;20179;-78
2021/09/17 01:36:56;;;;;;;11.63;10.63;;;14.80;99.90;;;;;;5024103;28;20191;-79
2021/09/17 01:39:22;;;;;;;13.00;11.70;;;14.80;99.90;;;;;;5024634;28;20265;-78
2021/09/17 01:41:48;;;;;;;12.20;10.97;;;14.80;99.90;;;;;;5023434;28;20241;-78
2021/09/17 01:44:14;;;;;;;12.00;10.80;;;14.80;99.90;;;;;;5042210;28;20289;-78
2021/09/17 01:46:40;;;;;;;11.60;10.57;;;14.80;99.90;;;;;;5028143;28;20682;-78
2021/09/17 01:49:06;;;;;;;11.13;10.10;;;14.80;99.90;;;;;;5021647;28;20207;-78
2021/09/17 01:51:31;;;;;;;11.67;10.57;;;14.80;99.90;;;;;;5021534;28;20278;-78
2021/09/17 01:53:57;;;;;;;11.77;10.70;;;14.80;99.90;;;;;;5022010;28;20171;-79
2021/09/17 01:56:23;;;;;;;13.07;11.63;;;14.90;99.90;;;;;;5018999;28;20278;-79
2021/09/17 01:58:50;;;;;;;11.27;10.30;;;14.90;99.90;;;;;;5020404;28;20176;-78
2021/09/17 02:01:17;;;;;;;12.30;11.10;;;14.90;99.90;;;;;;5021009;28;20179;-78
2021/09/17 02:03:42;;;;;;;11.07;10.17;;;14.90;99.90;;;;;;5021574;28;20194;-78
2021/09/17 02:06:08;;;;;;;11.17;10.10;;;14.80;99.90;;;;;;5019887;28;20266;-77
2021/09/17 02:08:34;;;;;;;11.03;9.97;;;14.90;99.90;;;;;;5019081;28;20717;-78
2021/09/17 02:10:59;;;;;;;11.43;10.40;;;14.90;99.90;;;;;;5022579;28;20201;-77
2021/09/17 02:13:25;;;;;;;11.07;10.03;;;14.80;99.90;;;;;;5020205;28;20187;-78
2021/09/17 02:15:53;;;;;;;10.10;9.30;;;14.80;99.90;;;;;;5019406;28;20179;-78
2021/09/17 02:18:19;;;;;;;10.77;9.80;;;14.80;99.90;;;;;;5018863;28;20175;-77
2021/09/17 02:20:46;;;;;;;10.80;9.83;;;14.80;99.90;;;;;;5010621;28;20188;-78
2021/09/17 02:23:13;;;;;;;10.13;9.33;;;14.80;99.90;;;;;;5004021;28;21495;-79
2021/09/17 02:25:38;;;;;;;9.30;8.50;;;14.70;99.90;;;;;;5003766;28;20252;-78
2021/09/17 02:28:04;;;;;;;10.43;9.43;;;14.70;99.90;;;;;;5003046;28;20231;-79
2021/09/17 02:30:30;;;;;;;9.50;8.67;;;14.70;99.90;;;;;;5002639;28;20207;-78
2021/09/17 02:32:56;;;;;;;10.33;9.27;;;14.60;99.90;;;;;;5001699;28;20199;-78
2021/09/17 02:35:22;;;;;;;10.33;9.43;;;14.60;99.90;;;;;;5007595;28;20187;-77
2021/09/17 02:37:47;;;;;;;10.37;9.40;;;14.50;99.90;;;;;;4999837;28;20275;-78
2021/09/17 02:40:15;;;;;;;9.80;8.93;;;14.50;99.90;;;;;;5003867;28;20571;-77
2021/09/17 02:42:41;;;;;;;9.17;8.27;;;14.60;99.90;;;;;;4999186;28;20191;-77
2021/09/17 02:45:09;;;;;;;9.23;8.33;;;14.50;99.90;;;;;;4998818;28;20230;-78
2021/09/17 02:47:35;;;;;;;10.13;9.30;;;14.50;99.90;;;;;;4999434;28;20200;-78
2021/09/17 02:50:01;;;;;;;9.40;8.70;;;14.60;99.90;;;;;;5002803;28;20777;-78
2021/09/17 02:52:26;;;;;;;9.47;8.57;;;14.50;99.90;;;;;;5010081;28;20206;-78
2021/09/17 02:54:52;;;;;;;9.60;8.70;;;14.40;99.90;;;;;;5005031;28;20175;-78
2021/09/17 02:57:19;;;;;;;9.50;8.73;;;14.40;99.90;;;;;;5000339;28;20650;-78
2021/09/17 02:59:45;;;;;;;10.17;9.27;;;14.40;99.90;;;;;;5002896;28;20179;-78
2021/09/17 03:02:11;;;;;;;9.83;8.93;;;14.40;99.90;;;;;;4999596;28;20262;-78
2021/09/17 03:04:36;;;;;;;8.47;7.87;;;14.40;99.90;;;;;;5001195;28;20658;-78
2021/09/17 03:07:02;;;;;;;8.87;8.10;;;14.50;99.90;;;;;;5002982;28;20671;-78
2021/09/17 03:09:28;;;;;;;8.80;7.97;;;14.50;99.90;;;;;;5013984;28;20187;-78
2021/09/17 03:11:54;;;;;;;8.83;8.00;;;14.40;99.90;;;;;;5027757;28;20245;-77
2021/09/17 03:14:20;;;;;;;8.73;8.03;;;14.40;99.90;;;;;;5018333;28;20180;-77
2021/09/17 03:16:46;;;;;;;9.20;7.90;;;14.40;99.90;;;;;;5017611;28;20191;-78
2021/09/17 03:19:11;;;;;;;8.23;7.57;;;14.40;99.90;;;;;;5017639;28;20205;-78
2021/09/17 03:21:37;;;;;;;8.60;7.80;;;14.40;99.90;;;;;;5017868;28;20190;-78
2021/09/17 03:24:03;;;;;;;8.43;7.70;;;;;;;;;;5016601;28;20604;-78
2021/09/17 03:26:29;;;;;;;7.80;7.10;;;14.30;99.90;;;;;;5017356;28;20269;-78
2021/09/17 03:28:54;;;;;;;11.13;7.97;;;14.30;99.90;;;;;;5017171;28;20190;-78
2021/09/17 03:31:20;;;;;;;8.13;7.43;;;14.30;99.90;;;;;;5015998;28;20211;-78
2021/09/17 03:33:46;;;;;;;7.73;7.13;;;14.30;99.90;;;;;;5016104;28;20175;-78
2021/09/17 03:36:11;;;;;;;7.27;6.63;;;14.30;99.90;;;;;;5016049;28;20234;-77
2021/09/17 03:38:37;;;;;;;8.00;7.30;;;14.30;99.90;;;;;;5015773;28;20266;-78
2021/09/17 03:41:05;;;;;;;7.23;6.63;;;14.30;99.90;;;;;;5016504;28;20290;-78
2021/09/17 03:43:32;;;;;;;7.73;7.13;;;14.30;99.90;;;;;;5015805;28;20265;-78
2021/09/17 03:45:57;;;;;;;7.40;6.70;;;14.30;99.90;;;;;;5016062;28;20206;-78
2021/09/17 03:48:23;;;;;;;7.13;6.53;;;14.30;99.90;;;;;;5017668;28;20187;-77
2021/09/17 03:50:49;;;;;;;6.57;6.07;;;14.30;99.90;;;;;;5017877;28;20270;-78
2021/09/17 03:53:14;;;;;;;7.17;6.43;;;14.30;99.90;;;;;;5017420;28;20244;-78
2021/09/17 03:55:40;;;;;;;8.73;6.30;;;14.40;99.90;;;;;;5019753;28;20182;-78
2021/09/17 03:58:06;;;;;;;6.20;5.73;;;14.40;99.90;;;;;;5020812;28;20190;-78
2021/09/17 04:00:32;;;;;;;6.17;5.73;;;14.40;99.90;;;;;;5017930;28;20207;-78
2021/09/17 04:02:58;;;;;;;6.57;5.97;;;14.40;99.90;;;;;;5019152;28;20183;-79
2021/09/17 04:05:24;;;;;;;6.63;6.13;;;14.50;99.90;;;;;;5018845;28;20175;-78
2021/09/17 04:07:49;;;;;;;6.57;6.00;;;14.50;99.90;;;;;;5014379;28;20202;-78
2021/09/17 04:10:16;;;;;;;6.80;6.20;;;14.50;99.90;;;;;;5019224;28;20190;-78
2021/09/17 04:12:43;;;;;;;7.10;6.07;;;14.50;99.90;;;;;;5019351;28;20202;-78
2021/09/17 04:15:09;;;;;;;6.00;5.50;;;14.50;99.90;;;;;;5020682;28;20194;-79
2021/09/17 04:17:35;;;;;;;6.83;6.20;;;14.50;99.90;;;;;;5020562;28;20202;-78
2021/09/17 04:20:01;;;;;;;6.30;5.73;;;14.50;99.90;;;;;;5020203;28;20195;-78
2021/09/17 04:22:27;;;;;;;5.97;5.47;;;14.50;99.90;;;;;;5024779;28;20182;-78
2021/09/17 04:24:53;;;;;;;5.77;5.27;;;14.50;99.90;;;;;;5025347;28;20646;-78
2021/09/17 04:27:22;;;;;;;5.83;5.33;;;14.40;99.90;;;;;;5022642;28;20221;-79
2021/09/17 04:29:48;;;;;;;6.77;6.07;;;14.30;99.90;;;;;;5023565;28;20171;-78
2021/09/17 04:32:14;;;;;;;6.13;5.63;;;14.40;99.90;;;;;;5034780;28;20201;-78
2021/09/17 04:34:39;;;;;;;6.23;5.73;;;14.50;99.90;;;;;;5034733;28;20184;-78
2021/09/17 04:37:05;;;;;;;6.63;5.97;;;14.50;99.90;;;;;;5026244;28;20198;-79
2021/09/17 04:39:31;;;;;;;9.10;5.33;;;14.50;99.90;;;;;;5023850;28;20199;-79
2021/09/17 04:41:56;;;;;;;5.70;5.30;;;14.50;99.90;;;;;;5023060;28;20185;-78
2021/09/17 04:44:22;;;;;;;5.03;4.63;;;14.60;99.90;;;;;;5026481;28;20191;-79
2021/09/17 04:46:48;;;;;;;5.90;5.40;;;14.70;99.90;;;;;;5024825;28;20211;-78
2021/09/17 04:49:13;;;;;;;5.57;5.07;;;14.70;99.90;;;;;;5026037;28;20183;-77
2021/09/17 04:51:39;;;;;;;5.07;4.63;;;14.60;99.90;;;;;;5025960;28;20199;-78
2021/09/17 04:54:05;;;;;;;5.77;5.27;;;14.50;99.90;;;;;;5030918;28;20599;-79
2021/09/17 04:56:30;;;;;;;5.23;4.90;;;14.50;99.90;;;;;;5035144;28;20195;-78
2021/09/17 04:58:56;;;;;;;6.50;5.60;;;14.50;99.90;;;;;;5026635;28;20179;-78
2021/09/17 05:01:22;;;;;;;6.33;5.73;;;14.50;99.90;;;;;;5026301;28;20658;-79
2021/09/17 05:03:50;;;;;;;5.73;5.30;;;14.50;99.90;;;;;;5025602;28;20191;-79
2021/09/17 05:06:16;;;;;;;5.63;5.13;;;14.50;99.90;;;;;;5025056;28;20238;-78
2021/09/17 05:08:42;;;;;;;5.70;5.30;;;14.50;99.90;;;;;;5025130;28;20550;-79
2021/09/17 05:11:08;;;;;;;6.13;5.53;;;14.50;99.90;;;;;;5025305;28;20210;-78
2021/09/17 05:13:33;;;;;;;5.73;5.30;;;14.50;99.90;;;;;;5022721;28;20206;-78
2021/09/17 05:15:59;;;;;;;6.93;6.33;;;14.50;99.90;;;;;;5020541;28;20263;-78
2021/09/17 05:18:25;;;;;;;6.60;6.00;;;14.50;99.90;;;;;;5021917;28;20287;-79
2021/09/17 05:20:50;;;;;;;6.17;5.67;;;14.60;99.90;;;;;;5025816;28;20611;-78
2021/09/17 05:23:16;;;;;;;6.07;5.57;;;14.60;99.90;;;;;;5015894;28;20567;-77
2021/09/17 05:25:42;;;;;;;6.03;5.53;;;14.60;99.90;;;;;;5018383;28;20658;-78
2021/09/17 05:28:07;;;;;;;9.00;5.50;;;14.60;99.90;;;;;;5013754;28;20226;-80
2021/09/17 05:30:33;;;;;;;5.97;5.37;;;14.60;99.90;;;;;;5011140;28;20674;-78
2021/09/17 05:32:59;;;;;;;7.63;5.43;;;14.70;99.90;;;;;;5020538;28;20183;-78
2021/09/17 05:35:24;;;;;;;7.47;5.83;;;14.60;99.90;;;;;;5020869;28;20210;-78
2021/09/17 05:37:50;;;;;;;7.83;5.80;;;14.60;99.90;;;;;;5018992;28;20257;-78
2021/09/17 05:40:16;;;;;;;5.87;5.40;;;14.70;99.90;;;;;;5019332;28;20190;-78
2021/09/17 05:42:42;;;;;;;5.80;5.30;;;14.70;99.90;;;;;;5020859;28;20222;-79
2021/09/17 05:45:09;;;;;;;5.87;5.40;;;14.60;99.90;;;;;;5018998;28;20183;-79
2021/09/17 05:47:34;;;;;;;6.93;6.10;;;14.60;99.90;;;;;;5020327;28;20322;-79
2021/09/17 05:50:00;;;;;;;6.90;6.40;;;14.50;99.90;;;;;;5018081;28;20179;-78
2021/09/17 05:52:25;;;;;;;6.97;6.30;;;14.50;99.90;;;;;;5019865;28;20677;-78
2021/09/17 05:54:51;;;;;;;7.97;7.17;;;14.40;99.90;;;;;;5018485;28;20697;-78
2021/09/17 05:57:17;;;;;;;6.90;6.30;;;14.40;99.90;;;;;;5018541;28;20274;-78
2021/09/17 05:59:43;;;;;;;6.63;6.07;;;14.40;99.90;;;;;;5028731;28;20248;-78
2021/09/17 06:02:08;;;;;;;5.70;5.23;;;14.40;99.90;;;;;;5023937;28;20229;-77
2021/09/17 06:04:35;;;;;;;5.10;4.60;;;14.40;99.90;;;;;;5019266;28;20234;-78
2021/09/17 06:07:01;;;;;;;7.63;5.63;;;14.40;99.90;;;;;;5017760;28;20217;-77
2021/09/17 06:09:27;;;;;;;5.23;4.73;;;14.40;99.90;;;;;;5019299;28;20183;-78
2021/09/17 06:11:53;;;;;;;5.83;5.20;;;14.40;99.90;;;;;;5019055;28;20199;-78
2021/09/17 06:14:25;;;;;;;5.80;5.30;;;14.40;99.90;;;;;;5018906;28;20175;-78
2021/09/17 06:16:50;;;;;;;6.00;5.17;;;14.40;99.90;;;;;;5025732;28;20203;-78
2021/09/17 06:19:16;;;;;;;6.50;6.00;;;14.40;99.90;;;;;;5022424;28;20241;-80
2021/09/17 06:21:42;;;;;;;5.63;5.23;;;14.40;99.90;;;;;;5021899;28;20187;-78
2021/09/17 06:24:07;;;;;;;5.90;5.40;;;14.40;99.90;;;;;;5021368;28;20186;-78
2021/09/17 06:26:33;;;;;;;5.63;5.13;;;14.50;99.90;;;;;;5019319;28;20219;-79
2021/09/17 06:29:02;;;;;;;6.30;5.10;;;14.50;99.90;;;;;;5023525;28;20218;-79
2021/09/17 06:31:28;;;;;;;5.47;5.07;;;14.50;99.90;;;;;;5039317;28;20661;-79
2021/09/17 06:33:53;;;;;;;5.27;4.87;;;14.50;99.90;;;;;;5036110;28;20254;-79
2021/09/17 06:36:19;;;;;;;5.57;5.07;;;14.50;99.90;;;;;;5037988;28;20732;-79
2021/09/17 06:38:45;;;;;;;5.50;5.00;;;14.60;99.90;;;;;;5038507;28;20239;-79
2021/09/17 06:41:11;;;;;;;5.23;4.77;;;14.60;99.90;;;;;;5027328;28;20175;-79
2021/09/17 06:43:37;;;;;;;5.80;5.30;;;14.60;99.90;;;;;;5025711;28;20590;-79
2021/09/17 06:46:02;;;;;;;5.70;4.63;;;14.60;99.90;;;;;;5038499;28;20568;-79
2021/09/17 06:48:28;;;;;;;5.67;5.17;;;14.70;99.90;;;;;;5035884;28;20190;-80
2021/09/17 06:50:54;;;;;;;5.37;4.90;;;14.70;99.90;;;;;;5019254;28;20406;-78
2021/09/17 06:53:19;;;;;;;5.53;4.93;;;14.70;99.90;;;;;;5035635;28;20170;-79
2021/09/17 06:55:45;;;;;;;5.50;4.63;;;14.80;99.90;;;;;;5030257;28;20194;-79
2021/09/17 06:58:11;;;;;;;5.37;4.97;;;14.80;99.90;;;;;;5038507;28;20242;-79
2021/09/17 07:00:37;;;;;;;5.80;5.40;;;14.80;99.90;;;;;;5029921;28;20174;-79
2021/09/17 07:03:04;;;;;;;5.13;4.73;;;14.80;99.90;;;;;;5010659;28;20597;-79
2021/09/17 07:05:31;;;;;;;6.13;5.10;;;14.80;99.90;;;;;;5018887;28;20187;-79
2021/09/17 07:08:08;;;;;;;6.37;5.77;;;14.70;99.90;;;;;;5026017;28;20199;-79
2021/09/17 07:10:37;;;;;;;6.20;5.60;;;14.80;99.90;;;;;;5026962;28;20202;-79
2021/09/17 07:13:03;;;;;;;6.03;5.53;;;14.80;99.90;;;;;;5035983;28;20235;-79
2021/09/17 07:15:29;;;;;;;5.57;5.17;;;14.90;99.90;;;;;;5026429;28;20180;-79
2021/09/17 07:17:55;;;;;;;5.30;4.90;;;15.00;99.90;;;;;;5028349;28;20610;-79
2021/09/17 07:20:21;;;;;;;7.50;5.17;;;15.00;99.90;;;;;;5010943;28;20266;-79
2021/09/17 07:22:47;;;;;;;5.73;5.23;;;15.00;99.90;;;;;;5021635;28;20179;-78
2021/09/17 07:25:13;;;;;;;5.80;5.30;;;15.10;99.90;;;;;;5018352;28;20186;-79
2021/09/17 07:27:39;;;;;;;6.50;5.63;;;15.10;99.90;;;;;;5019791;28;20219;-78
2021/09/17 07:30:06;;;;;;;7.97;6.30;;;15.20;99.90;;;;;;5019844;28;20184;-79
2021/09/17 07:32:34;;;;;;;6.70;6.20;;;15.20;99.90;;;;;;5020013;28;20217;-78
2021/09/17 07:34:59;;;;;;;7.47;6.73;;;15.20;99.90;;;;;;5020443;28;20179;-78
2021/09/17 07:37:26;;;;;;;7.33;6.63;;;15.20;99.90;;;;;;5017366;28;20322;-78
2021/09/17 07:39:51;;;;;;;8.83;8.07;;;15.20;99.90;;;;;;5022406;28;20198;-80
2021/09/17 07:42:17;;;;;;;8.37;7.57;;;15.20;99.90;;;;;;5018472;28;20178;-79
2021/09/17 07:44:43;;;;;;;9.57;8.83;;;15.20;99.90;;;;;;5012364;28;20655;-79
2021/09/17 07:47:09;;;;;;;8.77;7.97;;;15.30;99.90;;;;;;5024169;28;20198;-78
2021/09/17 07:49:35;;;;;;;9.43;8.50;;;15.30;99.90;;;;;;5040303;28;20170;-78
2021/09/17 07:52:01;;;;;;;7.40;6.80;;;15.40;99.90;;;;;;5020804;28;20199;-78
2021/09/17 07:54:27;;;;;;;7.57;6.87;;;15.50;99.90;;;;;;5019515;28;20548;-78
2021/09/17 07:56:54;;;;;;;7.37;6.60;;;15.50;99.90;;;;;;5019425;28;20198;-78
2021/09/17 07:59:20;;;;;;;6.80;6.23;;;15.60;99.90;;;;;;5019716;28;20171;-78
2021/09/17 08:01:45;;;;;;;6.70;6.10;;;15.60;99.90;;;;;;5018452;28;20662;-78
2021/09/17 08:04:11;;;;;;;6.50;5.90;;;15.70;99.90;;;;;;5020269;28;20182;-78
2021/09/17 08:06:37;;;;;;;11.63;6.83;;;15.80;99.90;;;;;;5020014;28;20665;-78
2021/09/17 08:09:03;;;;;;;7.53;6.97;;;15.90;99.90;;;;;;5020446;28;20176;-78
2021/09/17 08:11:29;;;;;;;7.43;6.93;;;16.00;99.90;;;;;;5018868;28;20199;-79
2021/09/17 08:13:55;;;;;;;8.27;7.63;;;16.10;99.90;;;;;;5023524;28;20202;-79
2021/09/17 08:16:20;;;;;;;7.90;7.40;;;16.10;99.90;;;;;;5025469;28;20193;-79
2021/09/17 08:18:46;;;;;;;8.03;7.43;;;16.20;99.90;;;;;;5023720;28;20183;-79
2021/09/17 08:21:13;;;;;;;7.00;6.50;;;16.10;99.90;;;;;;5022959;28;20181;-79
2021/09/17 08:23:39;;;;;;;7.73;7.13;;;16.20;99.90;;;;;;5033144;28;20188;-79
2021/09/17 08:26:08;;;;;;;7.37;6.87;;;16.20;99.90;;;;;;5023021;28;20214;-79
2021/09/17 08:28:34;;;;;;;8.03;5.87;;;16.30;99.90;;;;;;5024771;28;20656;-79
2021/09/17 08:31:02;;;;;;;7.13;5.83;;;16.40;99.90;;;;;;5019215;28;20241;-79
2021/09/17 08:33:28;;;;;;;8.53;6.90;;;16.50;99.90;;;;;;5022651;28;20262;-79
2021/09/17 08:35:54;;;;;;;9.07;8.37;;;16.50;99.90;;;;;;5018776;28;20185;-79
2021/09/17 08:38:19;;;;;;;10.60;9.47;;;16.50;99.90;;;;;;5016025;28;20188;-79
2021/09/17 08:40:45;;;;;;;8.93;8.33;;;16.50;99.90;;;;;;5022099;28;20187;-79
2021/09/17 08:43:10;;;;;;;8.57;7.80;;;16.50;99.90;;;;;;5020697;28;20177;-79
2021/09/17 08:45:36;;;;;;;9.07;8.20;;;16.50;99.90;;;;;;5023240;28;20184;-79
2021/09/17 08:48:02;;;;;;;8.43;7.83;;;16.60;99.90;;;;;;5022579;28;20181;-79
2021/09/17 08:50:29;;;;;;;8.47;7.83;;;16.60;99.90;;;;;;5026883;28;20203;-79
2021/09/17 08:52:55;;;;;;;7.47;6.77;;;16.60;99.90;;;;;;5033928;28;20221;-79
2021/09/17 08:55:21;;;;;;;6.73;6.23;;;16.60;99.90;;;;;;5020662;28;20182;-79
2021/09/17 08:57:48;;;;;;;6.30;5.83;;;16.70;99.90;;;;;;5021810;28;20202;-78
2021/09/17 09:00:36;;;;;;;7.13;6.53;;;16.70;99.90;;;;;;5017432;28;20315;-79
2021/09/17 09:03:01;;;;;;;6.73;6.17;;;16.70;99.90;;;;;;5012592;28;20175;-78
2021/09/17 09:05:34;;;;;;;6.40;5.80;;;16.80;99.90;;;;;;5023986;28;20188;-79
2021/09/17 09:08:00;;;;;;;5.60;5.10;;;16.80;99.90;;;;;;5015595;28;20197;-79
2021/09/17 09:10:27;;;;;;;5.27;4.80;;;16.80;99.90;;;;;;5025482;28;20215;-79
2021/09/17 09:12:56;;;;;;;5.63;5.23;;;16.80;99.90;;;;;;5021369;28;20213;-79
2021/09/17 09:15:30;;;;;;;6.10;5.70;;;16.90;99.90;;;;;;5023907;28;20182;-79
2021/09/17 09:18:13;;;;;;;4.67;4.37;;;16.90;99.90;;;;;;5024016;28;20209;-79
2021/09/17 09:20:48;;;;;;;5.20;4.10;;;16.90;99.90;;;;;;5022943;28;20188;-79
2021/09/17 09:23:17;;;;;;;3.13;2.93;;;17.00;99.90;;;;;;5025641;28;20183;-79
2021/09/17 09:25:57;;;;;;;4.33;3.93;;;17.10;99.90;;;;;;5024260;28;20173;-82
2021/09/17 09:28:34;;;;;;;3.80;3.50;;;17.20;99.90;;;;;;5030071;28;20221;-79
2021/09/17 09:31:09;;;;;;;3.00;2.70;;;17.30;99.90;;;;;;5030081;28;20207;-80
2021/09/17 09:33:37;;;;;;;2.60;2.40;;;17.40;99.90;;;;;;5022280;28;20656;-79
2021/09/17 09:36:15;;;;;;;2.50;2.20;;;17.40;99.90;;;;;;5023126;28;20245;-79
2021/09/17 09:38:48;;;;;;;2.00;1.90;;;17.40;99.90;;;;;;5023881;28;20184;-79
2021/09/17 09:41:22;;;;;;;2.23;2.10;;;17.50;99.90;;;;;;5023731;28;20278;-80
2021/09/17 09:43:57;;;;;;;2.67;2.43;;;17.50;99.90;;;;;;5021496;28;20185;-80
2021/09/17 09:46:38;;;;;;;2.10;2.00;;;17.50;99.90;;;;;;5022297;28;20296;-80
2021/09/17 09:49:25;;;;;;;2.37;2.17;;;17.50;99.90;;;;;;5021942;28;20190;-79
2021/09/17 09:52:00;;;;;;;2.67;2.40;;;17.60;99.90;;;;;;5037947;28;20221;-79
2021/09/17 09:54:30;;;;;;;2.23;2.03;;;17.50;99.90;;;;;;5015898;28;20182;-77
2021/09/17 09:56:56;;;;;;;2.07;1.60;;;17.50;99.90;;;;;;5015572;28;20233;-78
2021/09/17 09:59:28;;;;;;;1.50;1.40;;;17.50;99.90;;;;;;5016406;28;20182;-77
2021/09/17 10:01:56;;;;;;;2.00;1.90;;;17.60;99.90;;;;;;5022265;28;20256;-79
2021/09/17 10:04:23;;;;;;;1.73;1.63;;;17.70;99.90;;;;;;5021458;28;20318;-78
2021/09/17 10:07:08;;;;;;;1.73;1.63;;;17.80;99.90;;;;;;5021127;28;20200;-78
2021/09/17 10:09:37;;;;;;;2.10;2.00;;;17.90;99.90;;;;;;5043154;28;20173;-79
2021/09/17 10:12:13;;;;;;;1.60;1.50;;;17.90;99.90;;;;;;5040873;28;20285;-78
2021/09/17 10:14:43;;;;;;;1.83;1.50;;;18.00;99.90;;;;;;5010572;28;20218;-78
2021/09/17 10:17:15;;;;;;;2.33;1.90;;;18.00;99.90;;;;;;5020482;28;20202;-79
2021/09/17 10:19:44;;;;;;;1.53;1.43;;;18.00;99.90;;;;;;5021003;28;20174;-79
2021/09/17 10:22:10;;;;;;;1.77;1.50;;;18.00;99.90;;;;;;5020258;28;20197;-79
2021/09/17 10:24:41;;;;;;;1.87;1.50;;;18.30;99.90;;;;;;5019478;28;20209;-78
2021/09/17 10:27:25;;;;;;;1.40;1.30;;;18.30;99.90;;;;;;5019967;28;20705;-78
2021/09/17 10:29:53;;;;;;;4.63;1.30;;;18.30;99.90;;;;;;5016715;28;20213;-78
2021/09/17 10:32:37;;;;;;;1.23;1.20;;;18.30;99.90;;;;;;5014474;28;20234;-79
2021/09/17 10:35:18;;;;;;;1.37;1.20;;;18.40;99.90;;;;;;5020473;28;20187;-79
2021/09/17 10:38:08;;;;;;;1.40;1.30;;;18.40;99.90;;;;;;5029626;28;20202;-79
2021/09/17 10:40:42;;;;;;;3.83;1.50;;;18.70;99.90;;;;;;5017664;28;20253;-79
2021/09/17 10:43:12;;;;;;;1.50;1.40;;;18.80;99.90;;;;;;5021053;28;20195;-78
2021/09/17 10:45:41;;;;;;;1.43;1.33;;;18.80;99.90;;;;;;5010836;28;20178;-80
2021/09/17 10:48:07;;;;;;;1.93;1.40;;;18.70;99.90;;;;;;5019715;28;20186;-78
2021/09/17 10:50:41;;;;;;;1.50;1.40;;;18.70;99.90;;;;;;5018876;28;20269;-78
2021/09/17 10:53:07;;;;;;;1.37;1.30;;;18.70;99.90;;;;;;5020235;28;20214;-81
2021/09/17 10:55:45;;;;;;;1.47;1.37;;;18.70;99.90;;;;;;5022935;28;20183;-80
2021/09/17 10:58:27;;;;;;;2.10;1.40;;;18.80;99.90;;;;;;5025892;28;20175;-81
2021/09/17 11:01:10;;;;;;;1.10;1.10;;;19.00;99.90;;;;;;5023617;28;20175;-80
2021/09/17 11:03:39;;;;;;;3.03;1.50;;;19.00;99.90;;;;;;5024755;28;20183;-81
2021/09/17 11:06:26;;;;;;;1.50;1.40;;;19.10;99.90;;;;;;5025273;28;20226;-82
2021/09/17 11:08:55;;;;;;;2.77;1.27;;;19.20;99.90;;;;;;5023982;28;20547;-81
2021/09/17 11:11:31;;;;;;;2.03;1.23;;;19.20;99.90;;;;;;5026448;28;20206;-80
2021/09/17 11:14:00;;;;;;;1.83;1.67;;;19.10;99.90;;;;;;5014927;28;20179;-81
2021/09/17 11:16:27;;;;;;;2.83;1.80;;;19.10;99.90;;;;;;5014995;28;20199;-79
2021/09/17 11:19:05;;;;;;;1.80;1.70;;;19.30;99.90;;;;;;5015789;28;20258;-78
2021/09/17 11:21:34;;;;;;;1.50;1.40;;;19.30;99.90;;;;;;5014745;28;20553;-79
2021/09/17 11:24:00;;;;;;;1.40;1.30;;;19.30;99.90;;;;;;5022311;28;20241;-79
2021/09/17 11:26:32;;;;;;;1.87;1.77;;;19.40;99.90;;;;;;5017976;28;20260;-80
2021/09/17 11:29:14;;;;;;;1.90;1.80;;;19.40;99.90;;;;;;5018865;28;20215;-79
2021/09/17 11:31:50;;;;;;;1.80;1.70;;;19.40;99.90;;;;;;5022698;28;20206;-79
2021/09/17 11:34:18;;;;;;;2.17;1.67;;;19.60;99.90;;;;;;5023614;28;20175;-79
2021/09/17 11:37:01;;;;;;;2.60;1.50;;;19.70;99.90;;;;;;5020949;28;20215;-79
2021/09/17 11:39:32;;;;;;;2.30;1.30;;;19.70;99.90;;;;;;5021631;28;20665;-79
2021/09/17 11:42:01;;;;;;;1.53;1.23;;;19.80;99.90;;;;;;5027146;28;20213;-79
2021/09/17 11:44:33;;;;;;;2.07;1.70;;;19.80;99.90;;;;;;5025386;28;20243;-79
2021/09/17 11:47:00;;;;;;;1.57;1.30;;;19.80;99.90;;;;;;5016862;28;20208;-79
2021/09/17 11:49:27;;;;;;;1.50;1.40;;;19.70;99.90;;;;;;5025664;28;20612;-81
2021/09/17 11:52:08;;;;;;;1.33;1.23;;;19.90;99.90;;;;;;5025879;28;20203;-80
2021/09/17 11:54:34;;;;;;;1.17;1.10;;;20.10;99.90;;;;;;5016276;28;20186;-80
2021/09/17 11:57:12;;;;;;;2.07;1.97;;;20.20;99.90;;;;;;5014543;28;20200;-80
2021/09/17 11:59:43;;;;;;;1.97;1.80;;;20.00;99.90;;;;;;5029951;28;20173;-81
2021/09/17 12:02:19;;;;;;;1.37;1.27;;;19.90;99.90;;;;;;5022204;28;20659;-80
2021/09/17 12:04:56;;;;;;;2.10;1.50;;;20.00;99.90;;;;;;5037209;28;20296;-80
2021/09/17 12:07:23;;;;;;;2.53;1.40;;;20.20;99.90;;;;;;5024685;28;20226;-80
2021/09/17 12:09:49;;;;;;;2.00;1.90;;;20.20;99.90;;;;;;5034413;28;20190;-79
2021/09/17 12:12:14;;;;;;;1.80;1.70;;;20.30;99.90;;;;;;5030965;28;20237;-80
2021/09/17 12:14:49;;;;;;;1.90;1.80;;;20.20;99.90;;;;;;5025808;28;20179;-80
2021/09/17 12:17:15;;;;;;;1.53;1.43;;;20.10;99.90;;;;;;5025942;28;20207;-80
2021/09/17 12:20:07;;;;;;;1.70;1.60;;;20.10;99.90;;;;;;5021319;28;20256;-80
2021/09/17 12:22:34;;;;;;;1.87;1.60;;;20.30;99.90;;;;;;5024475;28;20217;-80
2021/09/17 12:25:09;;;;;;;2.03;1.83;;;20.20;99.90;;;;;;5027918;28;20197;-79
2021/09/17 12:27:37;;;;;;;1.70;1.60;;;20.10;99.90;;;;;;5032625;28;20290;-79
2021/09/17 12:30:09;;;;;;;2.13;1.60;;;20.10;99.90;;;;;;5022300;28;20191;-80
2021/09/17 12:32:35;;;;;;;1.50;1.40;;;20.70;99.90;;;;;;5022969;28;20210;-80
2021/09/17 12:35:07;;;;;;;2.33;1.40;;;21.00;99.90;;;;;;5012357;28;20243;-79
2021/09/17 12:37:33;;;;;;;1.70;1.60;;;21.20;99.90;;;;;;5016347;28;20198;-78
2021/09/17 12:40:20;;;;;;;2.87;1.80;;;21.30;99.90;;;;;;5015802;28;20179;-78
2021/09/17 12:43:01;;;;;;;2.10;1.40;;;21.30;99.90;;;;;;5016397;28;20249;-78
2021/09/17 12:45:28;;;;;;;2.13;1.50;;;21.00;99.90;;;;;;5018207;28;20179;-78
2021/09/17 12:48:00;;;;;;;1.50;1.40;;;20.90;99.90;;;;;;5015827;28;20234;-78